Time;durP1;ratioP1;P1;durP2;ratioP2;P2;SDS_P1;SDS_P2;PMS_P1;PMS_P2;Temp;Humidity;BMP_temperature;BMP_pressure;BME280_temperature;BME280_humidity;BME280_pressure;Samples;Min_cycle;Max_cycle;Signal;HPM_P1;HPM_P2
2022/08/18 04:01:32;;;;;;;7.00;5.13;;;17.60;96.30;;;;;;5468906;23;20587;-76
2022/08/18 04:04:01;;;;;;;8.37;4.70;;;17.50;96.30;;;;;;4982594;28;20418;-76
2022/08/18 04:06:30;;;;;;;4.70;4.20;;;17.50;96.30;;;;;;4991675;28;20778;-76
2022/08/18 04:08:59;;;;;;;4.83;4.37;;;17.50;96.30;;;;;;4993540;28;20479;-76
2022/08/18 04:11:27;;;;;;;5.40;4.90;;;17.50;96.30;;;;;;4965562;28;20434;-76
2022/08/18 04:13:53;;;;;;;5.13;4.73;;;17.50;96.30;;;;;;4956636;29;20410;-76
2022/08/18 04:16:19;;;;;;;4.60;4.20;;;17.50;96.30;;;;;;4957311;29;20509;-76
2022/08/18 04:18:44;;;;;;;5.27;4.87;;;17.50;96.30;;;;;;4968420;28;20552;-76
2022/08/18 04:21:12;;;;;;;5.13;4.63;;;17.50;96.30;;;;;;4975767;28;20205;-76
2022/08/18 04:23:39;;;;;;;11.03;4.20;;;17.60;96.30;;;;;;4975810;28;20166;-78
2022/08/18 04:26:07;;;;;;;8.97;4.73;;;17.60;96.30;;;;;;4975600;28;20953;-76
2022/08/18 04:28:33;;;;;;;6.30;4.80;;;17.60;96.30;;;;;;4974017;28;20494;-76
2022/08/18 04:31:04;;;;;;;7.70;4.77;;;17.70;96.30;;;;;;4975547;28;20907;-76
2022/08/18 04:33:29;;;;;;;12.60;4.60;;;17.80;96.30;;;;;;4975530;28;20155;-76
2022/08/18 04:35:55;;;;;;;7.70;5.40;;;17.90;96.30;;;;;;4963098;28;20426;-76
2022/08/18 04:38:22;;;;;;;5.37;4.20;;;18.10;96.30;;;;;;4955673;29;20226;-77
2022/08/18 04:40:47;;;;;;;5.07;4.67;;;18.20;96.30;;;;;;4963829;28;20193;-76
2022/08/18 04:43:16;;;;;;;11.63;4.33;;;18.30;96.30;;;;;;4974144;28;20512;-76
2022/08/18 04:45:44;;;;;;;5.90;4.80;;;18.50;96.30;;;;;;4975349;28;20253;-76
2022/08/18 04:48:10;;;;;;;4.93;4.47;;;18.80;96.30;;;;;;4974791;28;20422;-76
2022/08/18 04:50:37;;;;;;;4.70;4.30;;;19.10;96.30;;;;;;4975249;28;20496;-76
2022/08/18 04:55:55;;;;;;;10.07;4.80;;;19.40;96.30;;;;;;4952425;28;20414;-76
2022/08/18 04:58:22;;;;;;;5.13;4.70;;;19.60;96.30;;;;;;4974577;28;21040;-80
2022/08/18 05:00:57;;;;;;;8.83;4.90;;;19.60;96.30;;;;;;4975075;28;20232;-76
2022/08/18 05:03:25;;;;;;;7.03;4.13;;;19.80;96.30;;;;;;4975096;28;20432;-76
2022/08/18 05:05:52;;;;;;;4.87;4.37;;;19.80;96.30;;;;;;4975105;28;21026;-76
2022/08/18 05:08:18;;;;;;;7.73;4.40;;;19.80;96.30;;;;;;4974483;28;20422;-76
2022/08/18 05:10:43;;;;;;;15.53;4.30;;;19.80;96.30;;;;;;4957005;28;20446;-79
2022/08/18 05:13:08;;;;;;;6.73;4.50;;;19.80;96.30;;;;;;4955515;29;20183;-76
2022/08/18 05:15:35;;;;;;;7.03;5.00;;;20.00;96.30;;;;;;4955508;29;20175;-76
2022/08/18 05:18:00;;;;;;;5.53;5.00;;;20.30;96.30;;;;;;4954880;29;20262;-76
2022/08/18 05:20:26;;;;;;;5.00;4.33;;;20.60;96.30;;;;;;4955379;28;20497;-77
2022/08/18 05:22:51;;;;;;;8.27;5.07;;;20.70;96.30;;;;;;4955431;29;20183;-76
2022/08/18 05:25:17;;;;;;;7.53;4.87;;;21.10;96.30;;;;;;4955167;29;20606;-76
2022/08/18 05:27:43;;;;;;;7.77;4.77;;;21.30;96.30;;;;;;4955170;29;20167;-76
2022/08/18 05:30:10;;;;;;;9.57;4.63;;;21.20;96.30;;;;;;4937731;28;20194;-76
2022/08/18 05:32:41;;;;;;;4.83;4.30;;;21.30;96.30;;;;;;4955225;29;20449;-76
2022/08/18 05:35:27;;;;;;;12.73;4.93;;;21.20;96.30;;;;;;4955041;29;20407;-76
2022/08/18 05:38:01;;;;;;;26.40;5.20;;;20.90;96.30;;;;;;4954599;29;20969;-78
2022/08/18 05:40:27;;;;;;;5.80;4.13;;;20.60;96.30;;;;;;4959582;28;20917;-76
2022/08/18 05:42:56;;;;;;;6.37;4.43;;;20.30;96.30;;;;;;4974226;28;20450;-76
2022/08/18 05:45:22;;;;;;;7.47;4.53;;;20.20;96.30;;;;;;4974183;28;20706;-76
2022/08/18 05:47:48;;;;;;;7.40;4.43;;;20.20;96.30;;;;;;4956550;28;20464;-85
2022/08/18 05:50:17;;;;;;;6.83;5.00;;;20.30;96.30;;;;;;4973813;28;20413;-76
2022/08/18 05:53:04;;;;;;;5.00;4.60;;;20.30;96.30;;;;;;4974053;28;20178;-79
2022/08/18 05:58:42;;;;;;;7.27;4.63;;;20.50;96.30;;;;;;4973599;28;20445;-76
2022/08/18 06:01:17;;;;;;;5.07;4.60;;;20.50;96.30;;;;;;4973316;28;20500;-76
2022/08/18 06:03:56;;;;;;;8.27;4.50;;;20.50;96.30;;;;;;4973842;28;20834;-76
2022/08/18 06:06:28;;;;;;;5.43;4.57;;;20.50;96.30;;;;;;4973862;28;20940;-76
2022/08/18 06:09:16;;;;;;;11.10;4.30;;;20.60;96.30;;;;;;4970063;28;20895;-76
2022/08/18 06:11:42;;;;;;;7.80;4.80;;;20.70;96.30;;;;;;4954375;28;20808;-79
2022/08/18 06:14:08;;;;;;;23.33;5.77;;;20.80;96.30;;;;;;4954545;29;20403;-79
2022/08/18 06:16:52;;;;;;;5.30;4.80;;;20.90;96.30;;;;;;4954494;29;20449;-76
2022/08/18 06:19:43;;;;;;;5.33;4.83;;;21.00;96.30;;;;;;4953905;29;20275;-76
2022/08/18 06:22:14;;;;;;;6.60;4.73;;;21.10;96.30;;;;;;4937052;29;20825;-76
2022/08/18 06:25:00;;;;;;;12.03;4.60;;;21.30;96.30;;;;;;4954213;29;20454;-79
2022/08/18 06:27:46;;;;;;;6.00;5.00;;;21.30;96.30;;;;;;4937094;29;20450;-76
2022/08/18 06:30:20;;;;;;;5.47;5.00;;;21.50;96.30;;;;;;4954336;28;20426;-76
2022/08/18 06:33:08;;;;;;;7.07;4.40;;;21.60;96.30;;;;;;4936972;29;20791;-76
2022/08/18 06:35:59;;;;;;;9.13;4.50;;;21.80;96.30;;;;;;4954300;29;20463;-76
2022/08/18 06:38:37;;;;;;;12.67;4.80;;;21.90;96.30;;;;;;4936444;29;20411;-76
2022/08/18 06:41:21;;;;;;;11.80;4.67;;;22.10;96.30;;;;;;4963861;28;20512;-78
2022/08/18 06:44:27;;;;;;;7.93;4.93;;;22.10;96.30;;;;;;4973492;28;20920;-77
2022/08/18 06:47:02;;;;;;;8.07;5.30;;;22.50;96.30;;;;;;4913589;29;20542;-76
2022/08/18 06:49:36;;;;;;;6.80;4.80;;;23.20;96.30;;;;;;4966496;28;20417;-76
2022/08/18 06:52:23;;;;;;;8.73;4.83;;;23.80;96.30;;;;;;4972587;28;20421;-76
2022/08/18 06:54:50;;;;;;;5.83;4.10;;;24.20;96.30;;;;;;4973139;28;20405;-79
2022/08/18 06:57:26;;;;;;;11.00;4.87;;;24.50;96.30;;;;;;4955887;28;20414;-76
2022/08/18 07:00:08;;;;;;;10.60;4.70;;;24.80;96.30;;;;;;4972750;28;20761;-76
2022/08/18 07:02:45;;;;;;;10.33;3.93;;;25.20;96.20;;;;;;4973268;28;20897;-76
2022/08/18 07:05:18;;;;;;;8.57;3.90;;;25.20;95.80;;;;;;4972982;28;20409;-79
2022/08/18 07:07:43;;;;;;;7.93;3.27;;;25.10;94.50;;;;;;4973148;28;20572;-79
2022/08/18 07:10:15;;;;;;;5.07;2.93;;;25.30;89.10;;;;;;4959123;28;20982;-77
2022/08/18 07:12:40;;;;;;;3.73;3.40;;;25.60;88.80;;;;;;4953812;29;20638;-76
2022/08/18 07:15:10;;;;;;;5.37;3.40;;;25.60;87.80;;;;;;4953848;29;20421;-76
2022/08/18 07:17:37;;;;;;;4.07;3.73;;;25.80;89.50;;;;;;4953812;29;20523;-76
2022/08/18 07:20:07;;;;;;;11.23;4.13;;;25.70;93.80;;;;;;4953190;29;20409;-76
2022/08/18 07:22:58;;;;;;;11.13;3.80;;;25.20;93.20;;;;;;4953769;28;20438;-76
2022/08/18 07:25:41;;;;;;;15.80;4.47;;;25.20;92.30;;;;;;4953579;29;20418;-76
2022/08/18 07:28:25;;;;;;;7.27;4.07;;;25.10;96.10;;;;;;4953263;29;20411;-77
2022/08/18 07:30:51;;;;;;;10.13;4.10;;;25.10;96.30;;;;;;4953625;28;20442;-76
2022/08/18 07:33:23;;;;;;;35.87;4.40;;;25.50;94.60;;;;;;4936328;29;20923;-76
2022/08/18 07:36:02;;;;;;;6.83;4.20;;;25.60;91.70;;;;;;4953707;29;20469;-77
2022/08/18 07:38:52;;;;;;;19.00;4.80;;;25.80;92.00;;;;;;4953165;29;20402;-76
2022/08/18 07:41:24;;;;;;;12.53;3.77;;;25.80;90.50;;;;;;4965456;28;20901;-76
2022/08/18 07:44:17;;;;;;;7.80;4.20;;;25.90;90.50;;;;;;4955633;28;20424;-76
2022/08/18 07:46:50;;;;;;;6.97;3.90;;;26.10;90.30;;;;;;4955527;28;20900;-79
2022/08/18 07:49:20;;;;;;;12.63;4.50;;;26.00;89.90;;;;;;4972291;28;20741;-76
2022/08/18 07:51:49;;;;;;;5.47;3.70;;;26.00;90.20;;;;;;4972720;28;20425;-76
2022/08/18 07:54:28;;;;;;;6.10;3.60;;;26.00;88.60;;;;;;4972651;28;20413;-76
2022/08/18 07:57:17;;;;;;;11.03;3.90;;;27.40;87.80;;;;;;4955753;28;20754;-76
2022/08/18 07:59:56;;;;;;;7.37;3.40;;;28.50;82.20;;;;;;4971657;28;20433;-76
2022/08/18 08:02:38;;;;;;;5.73;4.13;;;29.00;80.10;;;;;;4973540;28;20453;-80
2022/08/18 08:05:07;;;;;;;10.27;4.30;;;28.90;81.40;;;;;;4958723;28;20417;-76
2022/08/18 08:07:44;;;;;;;26.23;3.70;;;28.80;81.40;;;;;;4976065;28;20452;-76
2022/08/18 08:10:32;;;;;;;9.50;3.90;;;28.20;83.50;;;;;;4962006;28;20406;-76
2022/08/18 08:13:10;;;;;;;17.37;4.10;;;28.20;83.50;;;;;;4956710;29;20397;-79
2022/08/18 08:16:02;;;;;;;13.23;4.37;;;28.00;83.90;;;;;;4939541;29;20463;-79
2022/08/18 08:18:34;;;;;;;15.63;3.90;;;27.60;85.90;;;;;;4956196;29;20813;-77
2022/08/18 08:21:21;;;;;;;6.53;4.03;;;27.20;87.00;;;;;;4956488;28;20430;-76
2022/08/18 08:23:54;;;;;;;7.60;3.90;;;27.00;86.80;;;;;;4956481;28;20414;-77
2022/08/18 08:26:51;;;;;;;14.03;4.13;;;26.90;87.80;;;;;;4956289;29;20454;-77
2022/08/18 08:29:39;;;;;;;17.87;4.17;;;26.70;88.40;;;;;;4955817;29;20398;-77
2022/08/18 08:32:15;;;;;;;8.50;3.40;;;26.60;88.60;;;;;;4956321;28;20477;-77
2022/08/18 08:34:50;;;;;;;16.20;4.03;;;26.60;89.10;;;;;;4956231;29;20501;-77
2022/08/18 08:37:41;;;;;;;13.97;4.00;;;26.80;88.90;;;;;;4956272;29;20773;-77
2022/08/18 08:40:20;;;;;;;19.80;4.33;;;26.80;87.80;;;;;;4958057;28;20414;-77
2022/08/18 08:43:00;;;;;;;16.53;4.40;;;26.50;88.80;;;;;;4975610;28;20420;-77
2022/08/18 08:45:31;;;;;;;11.73;4.13;;;26.40;88.50;;;;;;4975298;28;20401;-77
2022/08/18 08:47:59;;;;;;;7.87;3.87;;;26.50;89.60;;;;;;4974721;28;20412;-77
2022/08/18 08:50:28;;;;;;;9.30;4.13;;;26.60;88.10;;;;;;4975271;28;20559;-79
2022/08/18 08:53:11;;;;;;;6.67;3.90;;;26.40;88.30;;;;;;4975277;28;20496;-77
2022/08/18 08:55:46;;;;;;;5.70;3.77;;;25.90;88.90;;;;;;4975142;28;20420;-77
2022/08/18 08:58:56;;;;;;;10.77;3.53;;;25.90;88.80;;;;;;4974584;28;20901;-77
2022/08/18 09:01:40;;;;;;;16.93;3.70;;;25.70;88.40;;;;;;4974938;28;20558;-78
2022/08/18 09:04:30;;;;;;;8.23;3.60;;;25.10;89.70;;;;;;4974994;28;20417;-77
2022/08/18 09:07:14;;;;;;;6.57;3.80;;;24.80;91.00;;;;;;4974911;28;20476;-78
2022/08/18 09:09:57;;;;;;;4.03;3.63;;;24.50;92.90;;;;;;4965029;28;20493;-77
2022/08/18 09:12:40;;;;;;;9.43;3.83;;;24.40;92.40;;;;;;4955644;28;20449;-77
2022/08/18 09:15:33;;;;;;;17.47;4.07;;;24.50;96.10;;;;;;4955068;28;20414;-79
2022/08/18 09:18:17;;;;;;;4.33;3.50;;;24.30;93.80;;;;;;4955020;29;20414;-77
2022/08/18 09:21:03;;;;;;;5.50;3.70;;;24.10;92.80;;;;;;4955494;28;20797;-77
2022/08/18 09:23:39;;;;;;;13.77;3.57;;;24.10;93.20;;;;;;4955498;29;20390;-77
2022/08/18 09:26:52;;;;;;;9.37;3.50;;;24.00;96.30;;;;;;4955232;29;20446;-77
2022/08/18 09:29:37;;;;;;;5.53;3.57;;;24.00;96.30;;;;;;4858179;29;20914;-77
2022/08/18 09:32:18;;;;;;;8.37;4.27;;;24.10;96.30;;;;;;4955300;28;20438;-77
2022/08/18 09:34:57;;;;;;;9.37;3.87;;;24.30;95.40;;;;;;4955074;29;20423;-77
2022/08/18 09:37:29;;;;;;;24.77;3.97;;;24.40;94.70;;;;;;4955079;29;20433;-77
2022/08/18 09:43:29;;;;;;;10.03;3.43;;;25.00;93.10;;;;;;4974656;28;20385;-78
2022/08/18 09:46:03;;;;;;;9.60;4.20;;;25.30;92.20;;;;;;4974166;28;20464;-77
2022/08/18 09:48:33;;;;;;;7.00;3.40;;;25.50;91.50;;;;;;4973714;28;20397;-77
2022/08/18 09:51:22;;;;;;;16.27;3.67;;;25.60;90.90;;;;;;4973896;28;20519;-77
2022/08/18 09:53:51;;;;;;;3.90;3.60;;;25.70;90.10;;;;;;4974127;28;20881;-77
2022/08/18 09:56:49;;;;;;;14.27;3.67;;;25.70;89.40;;;;;;4973920;28;20421;-77
2022/08/18 09:59:35;;;;;;;13.50;3.90;;;25.70;89.60;;;;;;4956019;28;20429;-77
2022/08/18 10:02:12;;;;;;;15.33;3.77;;;25.60;88.70;;;;;;4973672;28;20453;-77
2022/08/18 10:04:50;;;;;;;6.73;4.27;;;25.50;90.70;;;;;;4973932;28;20778;-77
2022/08/18 10:07:20;;;;;;;14.10;3.70;;;25.50;89.70;;;;;;4973869;28;20543;-78
2022/08/18 10:10:10;;;;;;;13.20;4.00;;;25.50;89.70;;;;;;4962953;28;20410;-77
2022/08/18 10:13:00;;;;;;;22.87;4.00;;;25.50;89.70;;;;;;4954563;29;20497;-78
2022/08/18 10:15:45;;;;;;;20.23;5.87;;;25.30;89.60;;;;;;4955216;29;20754;-76
2022/08/18 10:18:41;;;;;;;13.03;4.37;;;25.10;89.80;;;;;;4905509;29;20769;-77
2022/08/18 10:36:49;;;;;;;14.53;4.30;;;24.50;95.10;;;;;;5931204;23;20489;-78
2022/08/18 10:39:36;;;;;;;7.47;4.30;;;24.30;95.70;;;;;;4975062;28;20419;-78
2022/08/18 10:42:22;;;;;;;16.70;4.50;;;24.20;94.50;;;;;;4937557;29;20478;-78
2022/08/18 10:44:52;;;;;;;18.53;4.70;;;24.20;96.30;;;;;;4956352;29;20473;-78
2022/08/18 10:47:29;;;;;;;9.40;4.30;;;24.20;95.00;;;;;;4956333;29;20946;-78
2022/08/18 10:49:56;;;;;;;12.30;4.37;;;24.20;95.90;;;;;;4955440;29;20937;-78
2022/08/18 10:52:45;;;;;;;7.67;4.43;;;24.20;94.40;;;;;;4955848;29;20430;-78
2022/08/18 10:55:31;;;;;;;20.87;5.17;;;24.10;94.40;;;;;;4954109;29;20410;-77
2022/08/18 10:58:08;;;;;;;10.63;5.10;;;24.30;94.30;;;;;;4953397;29;20402;-78
2022/08/18 11:00:47;;;;;;;7.70;4.67;;;24.40;94.10;;;;;;4953913;29;20443;-77
2022/08/18 11:03:31;;;;;;;13.87;5.50;;;24.50;95.00;;;;;;4953886;29;20422;-77
2022/08/18 11:06:10;;;;;;;13.63;5.40;;;24.30;95.10;;;;;;4953768;29;20446;-77
2022/08/18 11:08:43;;;;;;;13.20;4.90;;;24.30;95.20;;;;;;4954213;28;20394;-77
2022/08/18 11:11:11;;;;;;;11.10;4.90;;;24.40;95.90;;;;;;4955607;28;20452;-77
2022/08/18 11:13:57;;;;;;;23.37;5.13;;;24.60;96.30;;;;;;4955762;28;20410;-77
2022/08/18 11:16:51;;;;;;;9.93;4.90;;;24.80;96.00;;;;;;4973135;28;20405;-77
2022/08/18 11:19:19;;;;;;;11.53;5.80;;;24.90;94.90;;;;;;4972397;28;20409;-77
2022/08/18 11:21:50;;;;;;;12.93;6.23;;;25.10;94.10;;;;;;4972949;28;20921;-79
2022/08/18 11:24:27;;;;;;;27.90;6.63;;;25.60;93.50;;;;;;4973011;28;20416;-77
2022/08/18 11:26:56;;;;;;;10.13;5.70;;;25.70;93.00;;;;;;4972939;28;20461;-78
2022/08/18 11:29:40;;;;;;;9.40;5.20;;;25.70;92.20;;;;;;4972442;28;20851;-77
2022/08/18 11:32:27;;;;;;;12.17;6.03;;;25.30;92.70;;;;;;4972737;28;20452;-77
2022/08/18 11:34:58;;;;;;;19.07;6.43;;;25.00;94.90;;;;;;4972879;28;20397;-77
2022/08/18 11:37:59;;;;;;;11.00;6.13;;;25.00;94.90;;;;;;4956546;28;20783;-77
2022/08/18 11:40:37;;;;;;;7.83;5.77;;;25.30;93.00;;;;;;4971328;28;20512;-77
2022/08/18 11:43:09;;;;;;;14.67;7.33;;;25.40;93.30;;;;;;4957276;29;20398;-77
2022/08/18 11:45:51;;;;;;;13.53;6.53;;;25.60;92.20;;;;;;4957158;29;20422;-77
2022/08/18 11:48:20;;;;;;;12.97;6.97;;;25.40;93.50;;;;;;4956465;29;20418;-77
2022/08/18 11:50:54;;;;;;;10.43;6.47;;;25.40;92.60;;;;;;4956994;28;20426;-78
2022/08/18 11:53:31;;;;;;;10.43;5.53;;;25.40;93.50;;;;;;4957054;29;20442;-78
2022/08/18 11:56:18;;;;;;;21.90;6.00;;;25.50;94.30;;;;;;4956965;29;20406;-77
2022/08/18 11:58:55;;;;;;;10.10;7.37;;;25.40;93.40;;;;;;4956423;28;20402;-77
2022/08/18 12:01:39;;;;;;;15.83;6.37;;;25.30;94.00;;;;;;4939656;29;20429;-77
2022/08/18 12:04:22;;;;;;;15.07;7.07;;;25.00;94.80;;;;;;4956787;29;20489;-77
2022/08/18 12:07:02;;;;;;;9.80;5.70;;;24.90;94.90;;;;;;4956808;29;20857;-77
2022/08/18 12:09:37;;;;;;;11.57;6.70;;;25.00;95.60;;;;;;4963903;28;20401;-77
2022/08/18 12:12:21;;;;;;;18.47;6.20;;;25.10;95.20;;;;;;4975952;28;20428;-77
2022/08/18 12:14:55;;;;;;;20.70;8.33;;;25.30;95.30;;;;;;4976081;28;20390;-78
2022/08/18 12:17:21;;;;;;;9.90;7.60;;;25.30;94.80;;;;;;4975782;28;20417;-77
2022/08/18 12:19:46;;;;;;;15.23;7.67;;;25.40;95.40;;;;;;4975398;28;20414;-78
2022/08/18 12:22:27;;;;;;;11.40;7.67;;;25.70;95.00;;;;;;4975767;28;20288;-76
2022/08/18 12:24:53;;;;;;;15.60;7.00;;;26.20;93.40;;;;;;4975743;28;20177;-78
2022/08/18 12:27:22;;;;;;;13.63;7.70;;;26.70;92.10;;;;;;4975678;28;20472;-77
2022/08/18 12:29:50;;;;;;;20.43;9.43;;;26.80;91.80;;;;;;4975205;28;20463;-77
2022/08/18 12:32:16;;;;;;;15.40;8.10;;;27.40;90.20;;;;;;4975589;28;20488;-77
2022/08/18 12:34:41;;;;;;;10.90;7.67;;;28.00;89.80;;;;;;4975501;28;20996;-78
2022/08/18 12:37:09;;;;;;;15.13;8.03;;;28.40;87.90;;;;;;4975525;28;20193;-77
2022/08/18 12:39:35;;;;;;;14.40;8.80;;;28.80;85.20;;;;;;4957547;28;20182;-78
2022/08/18 12:42:01;;;;;;;13.87;9.33;;;28.90;86.20;;;;;;4957651;28;20449;-77
2022/08/18 12:44:27;;;;;;;12.17;9.70;;;28.90;86.10;;;;;;4938950;29;20787;-77
2022/08/18 12:46:54;;;;;;;19.10;9.50;;;28.80;85.90;;;;;;4956007;29;20198;-77
2022/08/18 12:49:22;;;;;;;20.73;9.27;;;29.10;87.50;;;;;;4954402;28;20162;-79
2022/08/18 12:51:49;;;;;;;16.63;10.70;;;29.80;85.70;;;;;;4955931;29;20418;-78
2022/08/18 12:54:15;;;;;;;13.70;9.17;;;29.40;82.90;;;;;;4955945;29;20406;-77
2022/08/18 12:56:42;;;;;;;17.00;10.83;;;29.00;87.30;;;;;;4955788;29;20422;-77
2022/08/18 12:59:08;;;;;;;18.60;11.13;;;29.40;85.10;;;;;;4955314;29;20417;-76
2022/08/18 13:01:36;;;;;;;15.27;10.37;;;29.60;84.60;;;;;;4938479;29;20433;-78
2022/08/18 13:04:03;;;;;;;20.10;9.30;;;29.40;85.40;;;;;;4955676;29;20410;-79
2022/08/18 13:06:30;;;;;;;14.00;10.30;;;29.00;86.00;;;;;;4955645;29;20556;-77
2022/08/18 13:08:55;;;;;;;26.67;10.87;;;28.70;86.10;;;;;;4958560;28;20425;-77
2022/08/18 13:11:22;;;;;;;12.20;10.97;;;28.10;87.60;;;;;;4957372;28;20588;-77
2022/08/18 13:13:49;;;;;;;14.23;10.17;;;28.00;88.30;;;;;;4974809;28;20173;-77
2022/08/18 13:16:17;;;;;;;13.50;10.87;;;28.00;87.70;;;;;;4974521;28;20567;-77
2022/08/18 13:18:42;;;;;;;14.27;10.67;;;27.90;88.30;;;;;;4974206;28;20416;-81
2022/08/18 13:21:10;;;;;;;18.73;9.50;;;28.00;88.90;;;;;;4974835;28;20433;-77
2022/08/18 13:23:36;;;;;;;15.97;10.43;;;28.00;88.60;;;;;;4974768;28;20178;-77
2022/08/18 13:26:03;;;;;;;11.20;9.70;;;28.20;87.50;;;;;;4974504;28;20452;-77
2022/08/18 13:28:31;;;;;;;12.83;11.10;;;28.00;88.50;;;;;;4974015;28;20523;-77
2022/08/18 13:30:57;;;;;;;20.73;10.73;;;27.80;89.70;;;;;;4974509;28;20444;-78
2022/08/18 13:33:23;;;;;;;13.10;10.07;;;27.80;90.70;;;;;;4974637;28;20406;-77
2022/08/18 13:35:49;;;;;;;23.60;11.53;;;28.10;89.90;;;;;;4974518;28;20185;-77
2022/08/18 13:38:18;;;;;;;14.33;11.70;;;27.90;89.30;;;;;;4973773;28;20257;-76
2022/08/18 13:40:47;;;;;;;19.63;11.00;;;27.70;89.60;;;;;;4966698;28;20440;-77
2022/08/18 13:43:13;;;;;;;12.17;10.73;;;27.50;91.20;;;;;;4954922;29;20480;-77
2022/08/18 13:45:38;;;;;;;14.80;10.97;;;27.60;90.60;;;;;;4954893;28;20989;-77
2022/08/18 13:48:04;;;;;;;13.60;10.43;;;27.90;90.20;;;;;;4954294;29;20489;-78
2022/08/18 13:50:30;;;;;;;17.07;11.20;;;28.00;89.40;;;;;;4954927;29;20217;-76
2022/08/18 13:52:59;;;;;;;21.90;9.97;;;28.00;88.10;;;;;;4954968;29;20883;-77
2022/08/18 13:55:25;;;;;;;19.90;11.40;;;27.80;89.20;;;;;;4954802;29;20173;-77
2022/08/18 13:57:50;;;;;;;14.37;10.30;;;27.50;90.20;;;;;;4954367;29;20417;-77
2022/08/18 14:00:19;;;;;;;13.20;10.97;;;27.10;92.20;;;;;;4954286;28;20190;-77
2022/08/18 14:02:47;;;;;;;21.63;10.37;;;27.20;91.80;;;;;;4954727;29;20253;-77
2022/08/18 14:05:15;;;;;;;29.97;12.10;;;27.30;91.00;;;;;;4954592;29;20910;-79
2022/08/18 14:07:41;;;;;;;16.03;10.37;;;27.50;90.20;;;;;;4954556;29;20871;-78
2022/08/18 14:10:07;;;;;;;14.87;10.27;;;27.70;90.20;;;;;;4966759;28;20917;-77
2022/08/18 14:12:36;;;;;;;12.87;11.50;;;27.70;90.20;;;;;;4973782;28;20429;-77
2022/08/18 14:15:05;;;;;;;13.10;11.47;;;27.60;90.30;;;;;;4973779;28;20413;-77
2022/08/18 14:17:31;;;;;;;12.30;11.07;;;27.40;91.00;;;;;;4973621;28;20425;-78
2022/08/18 14:28:09;;;;;;;22.83;11.80;;;27.70;89.70;;;;;;4973096;28;20400;-77
2022/08/18 14:30:36;;;;;;;16.20;13.30;;;27.20;90.80;;;;;;4956083;28;20433;-76
2022/08/18 14:33:06;;;;;;;12.60;11.40;;;27.10;91.00;;;;;;4973414;28;20197;-77
2022/08/18 14:35:32;;;;;;;17.80;11.40;;;27.00;91.30;;;;;;4973449;28;20449;-77
2022/08/18 14:38:00;;;;;;;18.60;11.70;;;27.00;90.90;;;;;;4972695;28;20461;-79
2022/08/18 14:40:26;;;;;;;19.07;11.73;;;27.30;89.70;;;;;;4968169;28;20175;-78
2022/08/18 14:42:52;;;;;;;16.50;11.33;;;27.40;90.00;;;;;;4954086;29;20410;-78
2022/08/18 14:45:17;;;;;;;12.10;10.80;;;27.40;90.20;;;;;;4936736;29;20405;-76
2022/08/18 14:47:43;;;;;;;21.20;10.27;;;27.40;90.40;;;;;;4953861;29;20198;-77
2022/08/18 14:50:11;;;;;;;13.10;11.20;;;26.90;91.50;;;;;;4953307;29;20175;-77
2022/08/18 14:52:38;;;;;;;26.93;13.00;;;26.70;92.30;;;;;;4953878;28;20190;-77
2022/08/18 14:55:04;;;;;;;23.30;12.40;;;26.70;92.60;;;;;;4953770;29;20414;-78
2022/08/18 14:57:30;;;;;;;19.30;11.80;;;26.60;92.70;;;;;;4953963;29;20477;-77
2022/08/18 14:59:55;;;;;;;16.63;10.87;;;26.70;93.60;;;;;;4953403;29;20422;-77
2022/08/18 15:02:21;;;;;;;17.90;11.73;;;26.80;93.10;;;;;;4954151;29;20202;-78
2022/08/18 15:04:46;;;;;;;28.87;12.00;;;26.90;92.00;;;;;;4953799;28;20178;-78
2022/08/18 15:07:12;;;;;;;25.17;11.23;;;26.90;91.90;;;;;;4953827;29;20533;-77
2022/08/18 15:09:37;;;;;;;13.83;11.90;;;26.90;91.20;;;;;;4962217;28;20178;-77
2022/08/18 15:12:03;;;;;;;21.30;12.63;;;27.00;91.60;;;;;;4973496;28;20677;-77
2022/08/18 15:14:30;;;;;;;16.03;11.10;;;27.10;91.10;;;;;;4977260;28;20178;-77
2022/08/18 15:16:57;;;;;;;16.67;10.93;;;27.10;91.10;;;;;;4977182;28;20177;-77
2022/08/18 15:19:24;;;;;;;18.50;10.57;;;27.30;90.80;;;;;;4976586;28;21044;-77
2022/08/18 15:27:17;;;;;;;11.93;10.77;;;26.90;90.00;;;;;;4977127;28;20557;-78
2022/08/18 15:29:43;;;;;;;11.57;10.23;;;26.60;92.00;;;;;;4976183;28;20990;-77
2022/08/18 15:32:09;;;;;;;18.13;10.80;;;26.90;92.30;;;;;;4976840;28;20248;-76
2022/08/18 15:34:34;;;;;;;16.10;10.67;;;27.30;91.70;;;;;;4976715;28;20638;-77
2022/08/18 15:37:00;;;;;;;22.10;10.50;;;27.60;89.90;;;;;;4976565;28;20276;-77
2022/08/18 15:39:25;;;;;;;23.10;10.43;;;27.80;88.30;;;;;;4976069;28;20182;-77
2022/08/18 15:41:52;;;;;;;14.53;10.07;;;28.00;88.10;;;;;;4959838;28;20875;-76
2022/08/18 15:44:19;;;;;;;15.77;10.67;;;28.00;87.90;;;;;;4957228;28;20205;-77
2022/08/18 15:46:47;;;;;;;18.10;9.83;;;27.80;87.30;;;;;;4957158;29;20509;-77
2022/08/18 15:49:13;;;;;;;17.30;9.57;;;27.70;88.40;;;;;;4956396;28;20410;-77
2022/08/18 15:51:42;;;;;;;13.80;9.37;;;27.90;88.30;;;;;;4956966;29;20777;-77
2022/08/18 15:54:09;;;;;;;15.80;10.73;;;27.70;87.80;;;;;;4957057;29;20468;-77
2022/08/18 15:56:35;;;;;;;15.03;8.73;;;27.60;88.20;;;;;;4956778;29;20417;-77
2022/08/18 15:59:06;;;;;;;17.10;9.50;;;27.50;89.10;;;;;;4956332;29;20425;-77
2022/08/18 16:01:35;;;;;;;16.83;10.63;;;27.40;89.70;;;;;;4956816;29;20489;-77
2022/08/18 16:04:01;;;;;;;16.13;11.47;;;27.30;88.70;;;;;;4956936;29;20418;-76
2022/08/18 16:06:28;;;;;;;26.90;10.20;;;27.20;88.90;;;;;;4956928;29;20532;-77
2022/08/18 16:08:54;;;;;;;10.83;9.30;;;27.00;89.60;;;;;;4959488;28;20420;-77
2022/08/18 16:11:21;;;;;;;12.67;10.63;;;27.00;90.90;;;;;;4975859;28;20926;-77
2022/08/18 16:13:48;;;;;;;12.70;11.37;;;26.80;91.40;;;;;;4976039;28;20413;-77
2022/08/18 16:16:17;;;;;;;11.80;9.80;;;26.70;92.30;;;;;;4976792;28;20413;-77
2022/08/18 16:18:44;;;;;;;16.90;10.30;;;26.60;92.20;;;;;;4978481;28;20452;-78
2022/08/18 16:21:12;;;;;;;19.40;9.27;;;26.50;92.40;;;;;;4978450;28;20437;-78
2022/08/18 16:23:40;;;;;;;21.63;10.53;;;26.40;93.50;;;;;;4978367;28;20423;-78
2022/08/18 16:26:06;;;;;;;19.50;9.93;;;26.40;93.50;;;;;;4977976;28;20471;-78
2022/08/18 16:28:33;;;;;;;10.83;9.63;;;26.10;93.70;;;;;;4977919;28;20897;-78
2022/08/18 16:30:59;;;;;;;11.60;8.60;;;26.00;94.40;;;;;;4980337;28;20441;-78
2022/08/18 16:33:25;;;;;;;11.67;9.20;;;25.70;95.50;;;;;;4980984;28;20414;-78
2022/08/18 16:35:51;;;;;;;26.53;9.70;;;25.40;96.30;;;;;;4961938;28;20849;-78
2022/08/18 16:38:17;;;;;;;16.13;10.07;;;25.30;96.30;;;;;;4977293;28;20182;-78
2022/08/18 16:40:43;;;;;;;15.10;9.70;;;25.20;96.30;;;;;;4970049;28;20195;-78
2022/08/18 16:43:09;;;;;;;14.00;9.90;;;25.20;96.30;;;;;;4958398;28;20438;-78
2022/08/18 16:45:41;;;;;;;13.20;9.20;;;25.10;96.30;;;;;;4958405;29;20171;-78
2022/08/18 16:48:07;;;;;;;24.67;9.40;;;24.90;96.30;;;;;;4957949;29;20421;-78
2022/08/18 16:50:34;;;;;;;16.60;8.70;;;24.80;96.30;;;;;;4957528;29;20437;-78
2022/08/18 16:52:59;;;;;;;21.07;8.50;;;24.80;96.30;;;;;;4958174;29;20754;-78
2022/08/18 16:55:25;;;;;;;13.70;7.90;;;24.90;96.30;;;;;;4957854;28;20417;-78
2022/08/18 17:06:09;;;;;;;23.23;7.90;;;24.80;96.30;;;;;;4955893;29;20502;-77
2022/08/18 17:08:36;;;;;;;15.30;8.00;;;24.80;96.30;;;;;;4955759;28;20494;-79
2022/08/18 17:11:08;;;;;;;12.60;8.20;;;24.80;96.30;;;;;;4974652;28;20425;-77
2022/08/18 17:13:34;;;;;;;12.27;8.67;;;24.80;96.30;;;;;;4957567;28;20472;-77
2022/08/18 17:16:00;;;;;;;14.93;9.00;;;24.70;96.30;;;;;;4957473;28;20969;-77
2022/08/18 17:18:26;;;;;;;8.87;8.07;;;24.70;96.30;;;;;;4974267;28;20413;-77
2022/08/18 17:20:52;;;;;;;12.37;8.27;;;24.70;96.30;;;;;;4957505;28;20534;-77
2022/08/18 17:23:18;;;;;;;16.20;8.00;;;24.70;96.30;;;;;;4974809;28;20448;-79
2022/08/18 17:25:44;;;;;;;13.23;8.33;;;24.60;96.30;;;;;;4974565;28;20219;-79
2022/08/18 17:28:15;;;;;;;18.57;8.30;;;24.50;96.30;;;;;;4974113;28;20626;-76
2022/08/18 17:30:46;;;;;;;17.60;8.30;;;24.40;96.30;;;;;;4974625;28;20433;-77
2022/08/18 17:33:17;;;;;;;10.90;9.57;;;24.10;96.30;;;;;;4974461;28;21099;-76
2022/08/18 17:35:45;;;;;;;13.97;8.37;;;24.00;96.30;;;;;;4974352;28;20806;-77
2022/08/18 17:38:28;;;;;;;18.67;8.47;;;23.80;96.30;;;;;;4973992;28;20417;-77
2022/08/18 17:40:56;;;;;;;21.83;8.97;;;23.60;96.30;;;;;;4965671;28;21070;-76
2022/08/18 17:43:24;;;;;;;13.57;8.67;;;23.50;96.30;;;;;;4955491;29;20410;-78
2022/08/18 17:45:57;;;;;;;14.77;9.10;;;23.40;96.30;;;;;;4956803;29;20542;-78
2022/08/18 17:48:29;;;;;;;8.33;7.60;;;23.30;96.30;;;;;;4956438;29;20421;-78
2022/08/18 17:53:45;;;;;;;14.57;9.37;;;23.20;96.30;;;;;;4957142;29;20492;-78
2022/08/18 17:56:20;;;;;;;9.90;8.30;;;23.10;96.30;;;;;;4956776;29;20840;-78